Historyczne dane pomiarowe

Dodano dane terminowe – wersja testowa.

Dane z okresu 1951-2019

Wersja bazy: 1.34 [2019-03-16, lista zmian], aktualizacja planowana na 2019-04-15

Dane meteo z obszaru Polski uzyskane na podstawie danych udostępnionych przez Instytut Meteorologii i Gospodarki Wodnej – Państwowy Instytut Badawczy.

 

Wybierz Datę:    

       

TemperaturaWilgotnośćWiatrCiśnienieOpadyŚniegCzas trwania zjawisk
 Stacja t tx tn tng RH VA  wxwx mslp ppp RRR   cm mm wxwxwxwxwxwxwx
1961-08-14 13.1 18.3 6.2 4.4 77.0- 2.0 3.3---- 0.0------------
1961-08-13 11.7 14.6 10.2 12.4 91.3- 6.3 2.3---- 6.6------------
1961-08-12 16.3 21.2 13.8 12.5 91.8- 7.7 2.0---- 30.8------------
1961-08-11 21.0 29.3 18.8 16.9 86.5- 4.0 2.7---- 7.6------------
1961-08-10 23.9 30.1 17.3 15.0 84.8- 0.7 1.3---- 0.0------------
1961-08-09 22.2 26.6 16.3 13.4 79.8- 7.0 1.7---- 4.5------------
1961-08-08 18.5 22.9 14.4 14.0 86.8- 6.3 2.7---- 0.8------------
1961-08-07 22.2 27.0 13.7 10.7 69.8- 4.7 3.0---- 3.8------------
1961-08-06 23.2 29.5 14.0 10.0 62.0- 1.0 3.0---- 0.0------------
1961-08-05 18.4 23.1 14.4 13.5 77.3- 3.0 3.7---- 0.0------------
1961-08-04 15.3 20.1 6.8 4.1 73.5- 4.3 3.0---- 0.0------------
1961-08-03 16.3 20.2 11.8 9.9 80.3- 7.0 2.0---- 0.0------------
1961-08-02 19.2 25.3 10.0 6.5 70.3- 3.7 4.0---- 0.0------------
1961-08-01 15.1 20.3 9.2 7.6 71.0- 3.3 4.7---- 0.0------------
1961-07-31 12.3 13.8 11.2 10.0 94.8- 8.0 5.0---- 15.0------------
1961-07-30 11.5 12.9 11.2 9.9 93.5- 8.0 3.0---- 26.6------------
1961-07-29 12.9 18.2 12.1 11.0 91.3- 7.3 2.7---- 0.8------------
1961-07-28 18.7 22.8 15.3 13.3 77.8- 6.7 4.0---- 11.0------------
1961-07-27 20.0 25.3 14.1 10.2 69.8- 5.7 5.0---- 3.3------------
1961-07-26 15.9 22.0 8.7 6.4 65.8- 3.7 3.7---- 0.0------------
1961-07-25 12.8 15.2 11.0 10.0 81.0- 7.0 2.7---- 0.0------------
1961-07-24 14.0 17.0 11.2 10.2 69.0- 6.3 3.7---- 0.0------------
1961-07-23 14.6 19.0 11.0 9.2 77.0- 6.7 2.3---- 0.0------------
1961-07-22 14.5 18.0 12.1 10.0 84.3- 7.3 3.7---- 0.6------------
1961-07-21 13.9 19.0 9.1 7.0 85.0- 6.7 3.7---- 3.0------------
1961-07-20 14.3 19.9 8.2 6.1 87.3- 5.7 2.7---- 2.4------------
1961-07-19 14.6 19.4 10.6 8.8 82.5- 6.3 2.0---- 7.4------------
1961-07-18 13.8 18.0 8.5 6.6 80.0- 6.0 3.7---- 0.3------------
1961-07-17 14.1 20.0 11.1 10.0 75.5- 3.7 5.0---- 0.6------------
1961-07-16 15.4 21.1 13.8 10.5 78.3- 3.7 5.7---- 0.0------------
1961-07-15 18.3 23.2 12.3 7.6 73.8- 6.7 4.0---- 25.5------------
1961-07-14 13.8 19.2 12.4 10.8 68.5- 6.3 6.3---- 1.0------------
1961-07-13 19.9 27.7 14.6 10.0 75.8- 4.0 5.0---- 33.6------------
1961-07-12 21.2 27.2 14.2 9.0 68.8- 2.3 4.0---- 0.0------------
1961-07-11 16.3 21.5 6.3 3.6 73.3- 2.3 4.0---- 0.0------------
1961-07-10 14.5 20.0 8.9 6.8 67.5- 3.0 4.0---- 0.1------------
1961-07-09 13.8 19.8 9.5 4.9 83.0- 4.3 4.3---- 2.0------------
1961-07-08 14.4 20.2 6.7 3.8 68.3- 1.3 1.3---- 0.0------------
1961-07-07 11.8 17.2 9.3 9.0 74.3- 3.7 2.0---- 0.0------------
1961-07-06 12.8 15.6 7.8 5.4 71.0- 7.0 4.3---- 0.1------------
1961-07-05 12.7 18.3 10.8 10.0 69.0- 6.0 4.0---- 0.0------------
1961-07-04 21.0 28.2 17.0 14.4 78.0- 3.3 3.0---- 7.4------------
1961-07-03 22.5 30.0 12.9 10.3 62.5- 0.3 3.0---- 0.0------------
1961-07-02 21.5 27.9 12.4 8.6 65.0- 0.0 1.0---- 0.0------------
1961-07-01 20.7 26.3 10.3 6.5 65.0- 1.0 0.3---- 0.0------------
1961-06-30 18.2 23.7 8.9 5.1 68.0- 0.7 1.0---- 0.0------------
1961-06-29 15.5 20.3 8.1 5.4 72.5- 1.7 2.7---- 0.0------------
1961-06-28 13.9 21.1 13.1 12.8 69.0- 4.3 5.3---- 1.9------------
1961-06-27 23.4 31.3 16.5 9.0 68.8- 5.0 5.3---- 52.9------------
1961-06-26 21.8 29.7 15.8 11.1 74.5- 5.0 4.3---- 4.7------------
1961-06-25 21.9 29.8 11.4 6.4 60.3- 0.3 3.7---- 0.0------------
1961-06-24 19.3 25.3 11.1 7.7 61.5- 2.7 3.7---- 0.0------------
1961-06-23 18.2 23.3 15.4 12.5 70.5- 3.3 4.7---- 0.0------------
1961-06-22 19.3 25.9 7.8 4.7 69.8- 1.3 3.7---- 5.9------------
1961-06-21 17.6 23.7 5.8 1.7 58.0- 1.0 3.7---- 0.0------------
1961-06-20 15.0 20.0 8.8 3.9 59.8- 1.3 3.0---- 0.0------------
1961-06-19 18.2 25.8 14.9 11.0 80.5- 4.7 3.7---- 0.5------------
1961-06-18 19.7 25.8 8.4 4.4 61.3- 1.0 4.0---- 0.0------------
1961-06-17 14.7 21.9 7.9 3.6 68.8- 1.3 2.0---- 0.0------------
1961-06-16 13.5 18.3 4.0 1.1 66.3- 4.0 2.7---- 0.0------------
385.0 ms

 

Źródłem pochodzenia danych jest Instytut Meteorologii i Gospodarki Wodnej – Państwowy Instytut Badawczy. Dane Instytutu Meteorologii i Gospodarki Wodnej – Państwowego Instytutu Badawczego zostały przetworzone.

Dane źródłowe można odnaleźć na stronie https://dane.imgw.pl